createdAt,value
2017-11-07T00:01:54.436Z,18.27
2017-11-07T00:04:21.548Z,22.20
2017-11-07T00:06:47.941Z,21.02
2017-11-07T00:09:16.091Z,17.27
2017-11-07T00:11:42.609Z,21.17
2017-11-07T00:14:09.035Z,23.30
2017-11-07T00:16:35.371Z,21.65
2017-11-07T00:19:01.708Z,19.35
2017-11-07T00:21:28.055Z,21.85
2017-11-07T00:23:54.387Z,21.20
2017-11-07T00:26:20.803Z,21.12
2017-11-07T00:28:47.141Z,15.48
2017-11-07T00:31:13.476Z,22.85
2017-11-07T00:33:39.827Z,19.35
2017-11-07T00:36:06.192Z,20.52
2017-11-07T00:38:32.554Z,25.00
2017-11-07T00:40:58.934Z,27.02
2017-11-07T00:43:27.043Z,22.15
2017-11-07T00:45:54.205Z,23.20
2017-11-07T00:48:20.555Z,23.55
2017-11-07T00:50:46.915Z,26.12
2017-11-07T00:53:13.235Z,21.67
2017-11-07T00:55:39.568Z,26.27
2017-11-07T00:58:05.920Z,24.00
2017-11-07T01:00:32.240Z,30.65
2017-11-07T01:02:58.598Z,26.70
2017-11-07T01:05:25.719Z,26.62
2017-11-07T01:07:52.050Z,28.45
2017-11-07T01:10:18.431Z,27.85
2017-11-07T01:12:44.767Z,24.95
2017-11-07T01:15:11.115Z,29.65
2017-11-07T01:17:37.471Z,25.62
2017-11-07T01:20:03.814Z,29.52
2017-11-07T01:22:30.139Z,30.48
2017-11-07T01:24:56.483Z,31.48
2017-11-07T01:27:23.738Z,29.00
2017-11-07T01:29:50.076Z,27.95
2017-11-07T01:32:17.192Z,35.72
2017-11-07T01:34:43.567Z,35.50
2017-11-07T01:37:10.667Z,34.22
2017-11-07T01:39:37.006Z,32.30
2017-11-07T01:42:03.395Z,30.23
2017-11-07T01:44:30.488Z,35.42
2017-11-07T01:46:56.867Z,43.30
2017-11-07T01:49:23.969Z,32.30
2017-11-07T01:51:50.338Z,40.33
2017-11-07T01:54:16.707Z,43.78
2017-11-07T01:56:43.084Z,46.20
2017-11-07T01:59:09.496Z,40.60
2017-11-07T02:01:35.907Z,43.17
2017-11-07T02:04:02.295Z,43.90
2017-11-07T02:06:28.685Z,40.47
2017-11-07T02:08:55.039Z,41.40
2017-11-07T02:11:21.416Z,48.60
2017-11-07T02:13:48.523Z,46.47
2017-11-07T02:16:14.887Z,37.13
2017-11-07T02:18:42.114Z,33.65
2017-11-07T02:21:08.482Z,34.05
2017-11-07T02:23:35.599Z,31.02
2017-11-07T02:26:01.992Z,44.42
2017-11-07T02:28:28.339Z,41.35
2017-11-07T02:30:55.435Z,32.83
2017-11-07T02:33:22.575Z,43.65
2017-11-07T02:35:48.967Z,33.22
2017-11-07T02:38:15.365Z,37.50
2017-11-07T02:40:41.811Z,37.33
2017-11-07T02:43:08.159Z,31.73
2017-11-07T02:45:34.546Z,28.33
2017-11-07T02:48:00.923Z,29.92
2017-11-07T02:50:27.279Z,29.65
2017-11-07T02:52:53.612Z,32.55
2017-11-07T02:55:19.948Z,26.87
2017-11-07T02:57:46.535Z,27.87
2017-11-07T03:00:12.887Z,24.15
2017-11-07T03:02:39.242Z,28.77
2017-11-07T03:05:05.582Z,23.67
2017-11-07T03:07:31.931Z,22.05
2017-11-07T03:09:58.290Z,24.10
2017-11-07T03:12:25.368Z,22.73
2017-11-07T03:14:51.708Z,29.63
2017-11-07T03:17:18.043Z,22.33
2017-11-07T03:19:44.607Z,21.48
2017-11-07T03:22:10.970Z,22.85
2017-11-07T03:24:38.062Z,19.40
2017-11-07T03:27:04.404Z,18.40
2017-11-07T03:29:30.748Z,22.40
2017-11-07T03:31:57.074Z,17.85
2017-11-07T03:34:23.421Z,17.80
2017-11-07T03:36:49.811Z,29.75
2017-11-07T03:39:16.171Z,21.87
2017-11-07T03:41:42.563Z,15.43
2017-11-07T03:44:08.928Z,19.33
2017-11-07T03:46:35.301Z,14.10
2017-11-07T03:49:02.402Z,18.50
2017-11-07T03:51:28.813Z,18.40
2017-11-07T03:53:55.135Z,15.35
2017-11-07T03:56:21.479Z,14.65
2017-11-07T03:58:47.842Z,18.15
2017-11-07T04:01:14.172Z,17.92
2017-11-07T04:03:40.531Z,16.23
2017-11-07T04:06:07.906Z,13.30
2017-11-07T04:08:34.278Z,11.80
2017-11-07T04:11:00.635Z,16.25
2017-11-07T04:13:27.834Z,17.37
2017-11-07T04:15:54.158Z,15.70
2017-11-07T04:18:21.267Z,13.80
2017-11-07T04:20:47.608Z,14.07
2017-11-07T04:23:13.939Z,13.55
2017-11-07T04:25:41.024Z,12.23
2017-11-07T04:28:07.380Z,10.13
2017-11-07T04:30:33.707Z,13.98
2017-11-07T04:33:00.062Z,11.77
2017-11-07T04:35:26.395Z,14.23
2017-11-07T04:37:52.765Z,20.58
2017-11-07T04:40:19.899Z,15.77
2017-11-07T04:42:46.218Z,14.48
2017-11-07T04:45:12.579Z,16.05
2017-11-07T04:47:39.676Z,16.37
2017-11-07T04:50:06.032Z,18.23
2017-11-07T04:52:32.355Z,17.05
2017-11-07T04:54:58.702Z,13.68
2017-11-07T04:57:25.044Z,19.08
2017-11-07T04:59:51.394Z,23.38
2017-11-07T05:02:18.481Z,29.45
2017-11-07T05:04:44.842Z,36.47
2017-11-07T05:07:11.208Z,33.97
2017-11-07T05:09:38.316Z,42.60
2017-11-07T05:12:04.686Z,44.33
2017-11-07T05:14:31.754Z,44.40
2017-11-07T05:16:58.123Z,38.47
2017-11-07T05:19:24.491Z,46.97
2017-11-07T05:21:51.588Z,64.15
2017-11-07T05:24:17.943Z,61.75
2017-11-07T05:26:44.302Z,68.95
2017-11-07T05:29:10.674Z,55.30
2017-11-07T05:31:37.013Z,42.62
2017-11-07T05:34:03.364Z,42.80
2017-11-07T05:36:29.747Z,34.00
2017-11-07T05:38:56.817Z,36.42
2017-11-07T05:41:23.175Z,33.63
2017-11-07T05:43:49.875Z,34.80
2017-11-07T05:46:17.013Z,30.80
2017-11-07T05:48:44.167Z,33.95
2017-11-07T05:51:11.304Z,33.40
2017-11-07T05:53:37.651Z,37.33
2017-11-07T05:56:04.739Z,35.83
2017-11-07T05:58:31.094Z,29.58
2017-11-07T06:00:57.530Z,30.17
2017-11-07T06:03:23.879Z,30.37
2017-11-07T06:05:50.543Z,38.28
2017-11-07T06:08:17.628Z,34.60
2017-11-07T06:10:44.004Z,40.33
2017-11-07T06:13:10.358Z,29.55
2017-11-07T06:15:37.435Z,33.80
2017-11-07T06:18:03.800Z,29.87
2017-11-07T06:20:31.133Z,34.78
2017-11-07T06:22:57.491Z,25.08
2017-11-07T06:25:23.848Z,39.25
2017-11-07T06:27:50.936Z,31.52
2017-11-07T06:30:18.316Z,28.45
2017-11-07T06:32:44.667Z,33.33
2017-11-07T06:35:11.003Z,36.67
2017-11-07T06:37:37.352Z,28.55
2017-11-07T06:40:03.739Z,31.73
2017-11-07T06:42:30.112Z,32.17
2017-11-07T06:44:57.226Z,29.80
2017-11-07T06:47:23.588Z,30.33
2017-11-07T06:49:50.711Z,28.52
2017-11-07T06:52:17.038Z,29.67
2017-11-07T06:54:43.381Z,30.70
2017-11-07T06:57:09.771Z,28.77
2017-11-07T06:59:36.138Z,31.50
2017-11-07T07:02:02.516Z,33.33
2017-11-07T07:04:29.619Z,28.27
2017-11-07T07:06:55.957Z,23.20
2017-11-07T07:09:22.357Z,27.02
2017-11-07T07:11:48.671Z,18.30
2017-11-07T07:14:14.995Z,24.37
2017-11-07T07:16:42.173Z,22.52
2017-11-07T07:19:08.506Z,21.92
2017-11-07T07:21:34.836Z,19.15
2017-11-07T07:24:01.931Z,19.10
2017-11-07T07:26:28.278Z,24.27
2017-11-07T07:28:55.346Z,23.00
2017-11-07T07:31:21.688Z,17.10
2017-11-07T07:33:48.028Z,22.08
2017-11-07T07:36:14.397Z,17.60
2017-11-07T07:38:40.763Z,16.15
2017-11-07T07:41:07.835Z,19.58
2017-11-07T07:43:34.187Z,16.25
2017-11-07T07:46:00.522Z,13.05
2017-11-07T07:48:26.847Z,17.10
2017-11-07T07:50:53.189Z,18.80
2017-11-07T07:53:19.556Z,15.13
2017-11-07T07:55:45.875Z,18.65
2017-11-07T07:58:12.216Z,15.35
2017-11-07T08:00:39.358Z,15.55
2017-11-07T08:03:05.782Z,14.85
2017-11-07T08:05:32.155Z,13.35
2017-11-07T08:07:59.341Z,15.77
2017-11-07T08:10:25.723Z,13.50
2017-11-07T08:12:52.832Z,23.52
2017-11-07T08:15:19.223Z,15.68
2017-11-07T08:17:46.350Z,25.95
2017-11-07T08:20:12.714Z,16.70
2017-11-07T08:22:39.067Z,16.62
2017-11-07T08:25:05.386Z,14.87
2017-11-07T08:27:31.748Z,16.10
2017-11-07T08:29:58.103Z,12.85
2017-11-07T08:32:24.447Z,11.95
2017-11-07T08:34:51.685Z,13.68
2017-11-07T08:37:18.031Z,12.43
2017-11-07T08:39:44.392Z,12.57
2017-11-07T08:42:10.731Z,16.35
2017-11-07T08:44:37.203Z,19.52
2017-11-07T08:47:03.537Z,13.05
2017-11-07T08:49:29.883Z,17.75
2017-11-07T08:51:56.228Z,18.50
2017-11-07T08:54:23.331Z,15.70
2017-11-07T08:56:49.675Z,19.48
2017-11-07T08:59:16.020Z,18.90
2017-11-07T09:01:42.384Z,18.85
2017-11-07T09:04:09.474Z,30.73
2017-11-07T09:06:35.832Z,31.95
2017-11-07T09:09:02.235Z,22.85
2017-11-07T09:11:28.615Z,35.75
2017-11-07T09:13:55.028Z,20.30
2017-11-07T09:16:21.388Z,29.92
2017-11-07T09:18:48.515Z,18.75
2017-11-07T09:21:14.887Z,22.05
2017-11-07T09:23:42.024Z,24.23
2017-11-07T09:26:09.141Z,21.10
2017-11-07T09:28:35.501Z,22.17
2017-11-07T09:31:01.855Z,25.20
2017-11-07T09:33:28.949Z,22.90
2017-11-07T09:35:55.283Z,19.80
2017-11-07T09:38:21.606Z,21.40
2017-11-07T09:40:48.060Z,34.92
2017-11-07T09:43:14.379Z,82.45
2017-11-07T09:45:40.730Z,204.02
2017-11-07T09:48:07.095Z,41.47
2017-11-07T09:50:34.161Z,27.10
2017-11-07T09:53:00.513Z,28.15
2017-11-07T09:55:26.883Z,23.52
2017-11-07T09:57:53.224Z,24.63
2017-11-07T10:00:20.326Z,21.70
2017-11-07T10:02:52.500Z,28.58
2017-11-07T10:05:18.851Z,25.48
2017-11-07T10:07:46.218Z,25.35
2017-11-07T10:10:12.547Z,25.08
2017-11-07T10:12:38.911Z,25.98
2017-11-07T10:15:05.255Z,24.12
2017-11-07T10:17:31.653Z,27.65
2017-11-07T10:19:57.976Z,30.50
2017-11-07T10:22:24.360Z,28.23
2017-11-07T10:24:50.769Z,25.23
2017-11-07T10:27:17.884Z,32.15
2017-11-07T10:29:44.271Z,30.27
2017-11-07T10:32:10.637Z,25.73
2017-11-07T10:34:37.011Z,29.23
2017-11-07T10:37:04.123Z,34.97
2017-11-07T10:39:30.496Z,27.23
2017-11-07T10:41:57.587Z,27.37
2017-11-07T10:44:23.967Z,28.73
2017-11-07T10:46:51.043Z,30.40
2017-11-07T10:49:17.425Z,26.73
2017-11-07T10:51:43.804Z,28.05
2017-11-07T10:54:10.172Z,24.67
2017-11-07T10:56:36.567Z,27.42
2017-11-07T10:59:03.702Z,31.90
2017-11-07T11:01:30.799Z,30.83
2017-11-07T11:03:57.131Z,31.10
2017-11-07T11:06:24.247Z,32.35
2017-11-07T11:08:51.358Z,31.62
2017-11-07T11:11:17.708Z,34.15
2017-11-07T11:13:44.911Z,30.50
2017-11-07T11:16:11.251Z,29.95
2017-11-07T11:18:37.593Z,28.52
2017-11-07T11:21:03.991Z,30.15
2017-11-07T11:23:31.108Z,32.55
2017-11-07T11:25:57.498Z,37.85
2017-11-07T11:28:23.852Z,34.33
2017-11-07T11:30:50.207Z,34.05
2017-11-07T11:33:17.291Z,34.25
2017-11-07T11:35:43.636Z,37.05
2017-11-07T11:38:10.003Z,34.00
2017-11-07T11:40:36.359Z,40.15
2017-11-07T11:43:04.454Z,29.80
2017-11-07T11:45:30.904Z,35.47
2017-11-07T11:47:57.247Z,34.38
2017-11-07T11:50:23.635Z,40.00
2017-11-07T11:52:49.985Z,41.78
2017-11-07T11:55:16.360Z,42.70
2017-11-07T11:57:42.746Z,36.40
2017-11-07T12:00:10.170Z,41.47
2017-11-07T12:02:36.514Z,37.70
2017-11-07T12:05:03.664Z,36.08
2017-11-07T12:07:30.776Z,41.92
2017-11-07T12:09:57.132Z,41.67
2017-11-07T12:12:23.530Z,47.10
2017-11-07T12:14:49.902Z,45.08
2017-11-07T12:17:16.262Z,46.08
2017-11-07T12:19:43.402Z,37.75
2017-11-07T12:22:10.527Z,33.88
2017-11-07T12:24:36.884Z,33.35
2017-11-07T12:27:03.992Z,34.92
2017-11-07T12:29:30.358Z,36.17
2017-11-07T12:31:57.446Z,37.03
2017-11-07T12:34:23.812Z,43.95
2017-11-07T12:36:50.187Z,33.85
2017-11-07T12:39:17.254Z,35.92
2017-11-07T12:41:43.618Z,38.83
2017-11-07T12:44:09.963Z,45.72
2017-11-07T12:46:36.296Z,37.47
2017-11-07T12:49:02.651Z,36.33
2017-11-07T12:51:41.860Z,40.55
2017-11-07T12:54:08.220Z,44.28
2017-11-07T12:56:35.316Z,39.05
2017-11-07T12:59:01.639Z,38.40
2017-11-07T13:01:28.003Z,46.35
2017-11-07T13:03:54.400Z,47.03
2017-11-07T13:06:20.736Z,44.80
2017-11-07T13:08:47.116Z,38.33
2017-11-07T13:11:14.187Z,47.80
2017-11-07T13:13:41.264Z,41.88
2017-11-07T13:16:07.617Z,48.67
2017-11-07T13:18:33.969Z,46.00
2017-11-07T13:21:00.303Z,50.53
2017-11-07T13:23:26.675Z,44.97
2017-11-07T13:25:53.004Z,40.85
2017-11-07T13:28:19.342Z,46.20
2017-11-07T13:30:45.724Z,48.08
2017-11-07T13:33:12.063Z,45.80
2017-11-07T13:35:38.607Z,49.95
2017-11-07T13:38:05.005Z,48.25
2017-11-07T13:40:31.364Z,50.90
2017-11-07T13:42:57.702Z,50.40
2017-11-07T13:45:24.084Z,49.08
2017-11-07T13:47:50.449Z,51.05
2017-11-07T13:50:16.805Z,46.83
2017-11-07T13:52:43.241Z,52.85
2017-11-07T13:55:09.571Z,49.95
2017-11-07T13:57:35.901Z,44.72
2017-11-07T14:00:02.344Z,49.13
2017-11-07T14:02:29.422Z,49.42
2017-11-07T14:04:55.799Z,50.28
2017-11-07T14:07:22.160Z,48.35
2017-11-07T14:09:48.526Z,53.10
2017-11-07T14:12:14.881Z,47.33
2017-11-07T14:14:41.255Z,47.53
2017-11-07T14:17:08.346Z,51.65
2017-11-07T14:19:34.689Z,49.47
2017-11-07T14:22:01.039Z,52.60
2017-11-07T14:24:27.399Z,51.75
2017-11-07T14:26:54.556Z,48.70
2017-11-07T14:29:21.716Z,49.72
2017-11-07T14:31:48.111Z,47.22
2017-11-07T14:34:14.459Z,51.63
2017-11-07T14:36:40.819Z,48.85
2017-11-07T14:39:07.175Z,53.53
2017-11-07T14:41:33.554Z,43.85
2017-11-07T14:43:59.940Z,43.92
2017-11-07T14:46:27.364Z,42.67
2017-11-07T14:48:54.480Z,43.90
2017-11-07T14:51:20.816Z,38.80
2017-11-07T14:53:47.195Z,39.63
2017-11-07T14:56:13.547Z,40.60
2017-11-07T14:58:39.904Z,36.88
2017-11-07T15:01:07.267Z,42.62
2017-11-07T15:03:33.631Z,44.30
2017-11-07T15:06:00.721Z,45.83
2017-11-07T15:08:27.824Z,45.28
2017-11-07T15:10:54.902Z,47.35
2017-11-07T15:13:21.239Z,42.53
2017-11-07T15:15:47.607Z,41.95
2017-11-07T15:18:13.972Z,43.95
2017-11-07T15:20:41.065Z,43.72
2017-11-07T15:23:07.406Z,39.65
2017-11-07T15:25:33.765Z,40.95
2017-11-07T15:28:00.091Z,49.97
2017-11-07T15:30:26.440Z,42.83
2017-11-07T15:32:53.559Z,50.35
2017-11-07T15:35:19.913Z,42.55
2017-11-07T15:37:46.279Z,41.25
2017-11-07T15:40:12.634Z,39.60
2017-11-07T15:42:39.695Z,40.95
2017-11-07T15:45:06.082Z,44.85
2017-11-07T15:47:34.159Z,43.95
2017-11-07T15:50:01.225Z,40.65
2017-11-07T15:52:28.589Z,37.78
2017-11-07T15:54:54.912Z,43.15
2017-11-07T15:57:21.246Z,43.03
2017-11-07T15:59:47.607Z,38.35
2017-11-07T16:02:13.955Z,45.67
2017-11-07T16:04:40.283Z,40.47
2017-11-07T16:07:06.633Z,35.83
2017-11-07T16:09:33.438Z,40.50
2017-11-07T16:11:59.779Z,47.47
2017-11-07T16:14:26.163Z,36.40
2017-11-07T16:16:52.508Z,32.45
2017-11-07T16:19:18.854Z,38.75
2017-11-07T16:21:45.228Z,46.75
2017-11-07T16:24:11.560Z,38.50
2017-11-07T16:26:37.900Z,36.03
2017-11-07T16:29:05.019Z,38.05
2017-11-07T16:31:31.366Z,45.15
2017-11-07T16:33:57.728Z,44.55
2017-11-07T16:36:24.831Z,50.65
2017-11-07T16:38:51.156Z,49.42
2017-11-07T16:41:17.498Z,48.25
2017-11-07T16:43:43.843Z,49.30
2017-11-07T16:46:10.167Z,47.10
2017-11-07T16:48:36.503Z,49.47
2017-11-07T16:51:02.851Z,45.50
2017-11-07T16:53:29.174Z,59.08
2017-11-07T16:55:55.505Z,55.47
2017-11-07T16:58:21.865Z,49.08
2017-11-07T17:00:48.987Z,53.83
2017-11-07T17:03:16.072Z,51.60
2017-11-07T17:05:43.171Z,43.45
2017-11-07T17:08:09.518Z,37.55
2017-11-07T17:10:35.873Z,45.28
2017-11-07T17:13:02.956Z,78.05
2017-11-07T17:15:30.319Z,90.70
2017-11-07T17:17:56.647Z,50.38
2017-11-07T17:20:23.027Z,51.22
2017-11-07T17:22:50.112Z,48.70
2017-11-07T17:25:16.431Z,45.70
2017-11-07T17:27:43.519Z,44.63
2017-11-07T17:30:09.868Z,50.92
2017-11-07T17:32:36.196Z,50.22
2017-11-07T17:35:02.623Z,60.05
2017-11-07T17:37:28.960Z,56.92
2017-11-07T17:39:56.342Z,53.58
2017-11-07T17:42:22.711Z,48.03
2017-11-07T17:44:49.054Z,47.00
2017-11-07T17:47:15.380Z,46.42
2017-11-07T17:49:41.732Z,47.40
2017-11-07T17:52:08.065Z,49.13
2017-11-07T17:54:34.419Z,50.55
2017-11-07T17:57:00.786Z,48.47
2017-11-07T17:59:27.864Z,45.75
2017-11-07T18:01:54.210Z,52.53
2017-11-07T18:04:20.543Z,48.60
2017-11-07T18:06:46.867Z,48.72
2017-11-07T18:09:13.232Z,51.60
2017-11-07T18:11:40.584Z,47.38
2017-11-07T18:14:06.906Z,52.00
2017-11-07T18:16:33.267Z,46.60
2017-11-07T18:18:59.600Z,42.90
2017-11-07T18:21:25.931Z,44.15
2017-11-07T18:23:52.284Z,54.55
2017-11-07T18:26:18.595Z,58.60
2017-11-07T18:28:45.671Z,54.67
2017-11-07T18:31:12.027Z,47.13
2017-11-07T18:33:38.368Z,47.17
2017-11-07T18:36:04.698Z,53.03
2017-11-07T18:38:31.051Z,52.72
2017-11-07T18:40:57.410Z,50.83
2017-11-07T18:43:24.507Z,41.55
2017-11-07T18:45:50.859Z,44.05
2017-11-07T18:48:17.231Z,44.78
2017-11-07T18:50:43.635Z,41.72
2017-11-07T18:53:09.956Z,49.45
2017-11-07T18:55:36.288Z,48.67
2017-11-07T18:58:02.654Z,49.22
2017-11-07T19:00:30.791Z,57.15
2017-11-07T19:02:58.175Z,54.78
2017-11-07T19:05:25.305Z,55.92
2017-11-07T19:07:51.637Z,56.97
2017-11-07T19:10:17.991Z,58.20
2017-11-07T19:12:45.078Z,59.60
2017-11-07T19:15:11.413Z,48.95
2017-11-07T19:17:37.834Z,49.25
2017-11-07T19:20:04.171Z,51.08
2017-11-07T19:22:30.555Z,55.20
2017-11-07T19:24:56.897Z,53.83
2017-11-07T19:27:23.259Z,52.10
2017-11-07T19:29:49.623Z,82.85
2017-11-07T19:32:15.995Z,77.25
2017-11-07T19:34:43.579Z,56.28
2017-11-07T19:37:10.831Z,62.88
2017-11-07T19:39:37.977Z,52.15
2017-11-07T19:42:05.071Z,46.85
2017-11-07T19:44:31.467Z,46.28
2017-11-07T19:46:57.851Z,46.08
2017-11-07T19:49:24.227Z,39.13
2017-11-07T19:51:51.342Z,40.95
2017-11-07T19:54:17.680Z,46.05
2017-11-07T19:56:44.038Z,52.00
2017-11-07T19:59:11.135Z,60.88
2017-11-07T20:01:38.519Z,52.92
2017-11-07T20:04:04.873Z,48.05
2017-11-07T20:06:31.991Z,42.78
2017-11-07T20:08:58.368Z,48.72
2017-11-07T20:11:24.715Z,45.10
2017-11-07T20:13:51.058Z,48.60
2017-11-07T20:16:17.452Z,44.00
2017-11-07T20:18:44.534Z,44.03
2017-11-07T20:21:10.906Z,46.50
2017-11-07T20:23:37.255Z,47.00
2017-11-07T20:26:03.687Z,53.55
2017-11-07T20:28:30.033Z,38.67
2017-11-07T20:30:56.396Z,48.17
2017-11-07T20:33:22.763Z,47.35
2017-11-07T20:35:49.118Z,48.10
2017-11-07T20:38:15.467Z,56.13
2017-11-07T20:40:42.675Z,52.97
2017-11-07T20:43:09.044Z,51.03
2017-11-07T20:45:36.104Z,33.20
2017-11-07T20:48:04.235Z,43.45
2017-11-07T20:50:31.497Z,42.40
2017-11-07T20:52:57.839Z,44.97
2017-11-07T20:55:25.230Z,39.13
2017-11-07T20:57:51.609Z,41.33
2017-11-07T21:00:17.931Z,43.42
2017-11-07T21:02:44.281Z,40.22
2017-11-07T21:05:10.654Z,36.60
2017-11-07T21:07:38.209Z,35.33
2017-11-07T21:10:04.627Z,37.30
2017-11-07T21:12:31.723Z,33.58
2017-11-07T21:14:58.050Z,43.50
2017-11-07T21:17:24.392Z,44.53
2017-11-07T21:19:50.747Z,37.92
2017-11-07T21:22:17.106Z,33.80
2017-11-07T21:24:44.194Z,36.38
2017-11-07T21:27:10.572Z,35.25
2017-11-07T21:29:36.990Z,32.65
2017-11-07T21:32:03.365Z,39.78
2017-11-07T21:34:29.750Z,34.53
2017-11-07T21:36:56.082Z,33.70
2017-11-07T21:39:22.459Z,36.75
2017-11-07T21:41:48.816Z,40.67
2017-11-07T21:44:15.175Z,35.65
2017-11-07T21:46:41.500Z,42.78
2017-11-07T21:49:07.875Z,40.22
2017-11-07T21:51:34.986Z,45.85
2017-11-07T21:54:01.315Z,41.35
2017-11-07T21:56:27.818Z,41.65
2017-11-07T21:58:54.185Z,38.55
2017-11-07T22:01:21.515Z,43.10
2017-11-07T22:03:47.910Z,38.33
2017-11-07T22:06:15.250Z,45.22
2017-11-07T22:08:41.589Z,41.83
2017-11-07T22:11:07.915Z,44.42
2017-11-07T22:13:34.239Z,44.22
2017-11-07T22:16:00.580Z,41.25
2017-11-07T22:18:26.902Z,43.03
2017-11-07T22:20:53.271Z,41.50
2017-11-07T22:23:25.270Z,41.55
2017-11-07T22:25:51.594Z,46.88
2017-11-07T22:28:17.938Z,42.70
2017-11-07T22:30:44.304Z,55.85
2017-11-07T22:33:10.636Z,42.72
2017-11-07T22:35:36.972Z,47.20
2017-11-07T22:38:04.088Z,46.22
2017-11-07T22:40:30.427Z,50.00
2017-11-07T22:42:56.746Z,48.00
2017-11-07T22:45:23.117Z,44.30
2017-11-07T22:47:49.455Z,46.65
2017-11-07T22:50:15.792Z,42.30
2017-11-07T22:52:43.894Z,53.35
2017-11-07T22:55:10.262Z,54.38
2017-11-07T22:57:36.615Z,57.03
2017-11-07T23:00:03.015Z,43.67
2017-11-07T23:02:29.350Z,44.90
2017-11-07T23:04:55.698Z,45.67
2017-11-07T23:07:22.015Z,45.90
2017-11-07T23:09:48.371Z,48.60
2017-11-07T23:12:14.682Z,45.15
2017-11-07T23:14:41.038Z,47.80
2017-11-07T23:17:07.367Z,43.15
2017-11-07T23:19:33.706Z,34.80
2017-11-07T23:22:00.042Z,37.28
2017-11-07T23:24:26.396Z,34.50
2017-11-07T23:26:53.503Z,35.47
2017-11-07T23:29:19.883Z,28.60
2017-11-07T23:31:46.194Z,34.03
2017-11-07T23:34:13.293Z,28.58
2017-11-07T23:36:39.659Z,32.42
2017-11-07T23:39:05.999Z,26.73
2017-11-07T23:41:32.327Z,32.53
2017-11-07T23:43:58.667Z,29.55
2017-11-07T23:46:25.751Z,33.47
2017-11-07T23:48:52.087Z,33.80
2017-11-07T23:51:19.466Z,33.83
2017-11-07T23:53:45.798Z,34.72
2017-11-07T23:56:12.167Z,43.90
2017-11-07T23:58:39.255Z,32.42
